首页
METAR-TAF:

METAR-TAF

机场 :

Leeming, 英格兰

纬度: 54-18N, 经度: 001-32W, 海拔: 40米

当前天气观测

该预报发布于1小时和6分钟前的05:50 UTC
风速11节,风向西北
温度 8°C
湿度 76%
气压 1009 hPa
能见度10公里或以上

METAR: EGXE 200550Z AUTO 32011KT 9999 FEW023/// SCT031/// BKN060/// 08/04 Q1009

时间: 07:56 (06:56 UTC)


TAF: 丢失

超过4000个机场的气象观测和天气预报(METAR&TAF报告)。

可查询的气象台以黄色和红色小点在地图上表示。

将鼠标移到小点上方,可查看气象台名称。

然后点击查看天气观测和预报。

如需切换地图:点击带黑十字的绿色按钮放大地图;点击带横线的绿色按钮缩小地图;或者点击绿色箭头查看邻近地区的地图。


METAR-TAF: